createdAt,value
2023-04-28T00:00:54.932Z,96846.91
2023-04-28T00:03:22.774Z,96774.31
2023-04-28T00:05:50.640Z,96745.41
2023-04-28T00:08:18.483Z,96729.97
2023-04-28T00:10:46.394Z,96701.88
2023-04-28T00:13:15.820Z,96684.16
2023-04-28T00:15:43.594Z,96660.88
2023-04-28T00:18:11.320Z,96646.88
2023-04-28T00:20:39.162Z,96609.19
2023-04-28T00:23:06.988Z,96579.59
2023-04-28T00:25:34.755Z,96563.22
2023-04-28T00:28:02.881Z,96610.00
2023-04-28T00:30:32.639Z,96572.72
2023-04-28T00:33:00.488Z,96543.19
2023-04-28T00:35:28.450Z,96533.84
2023-04-28T00:37:56.268Z,96502.34
2023-04-28T00:40:24.204Z,96503.16
2023-04-28T00:42:51.937Z,96478.72
2023-04-28T00:45:19.825Z,96449.72
2023-04-28T00:47:48.999Z,96417.31
2023-04-28T00:50:17.722Z,96389.25
2023-04-28T00:52:45.792Z,96364.53
2023-04-28T00:55:16.570Z,96335.69
2023-04-28T00:57:47.895Z,96331.59
2023-04-28T01:00:16.635Z,96318.00
2023-04-28T01:02:48.639Z,96329.13
2023-04-28T01:05:17.850Z,96356.31
2023-04-28T01:07:45.640Z,96361.25
2023-04-28T01:10:13.600Z,96380.22
2023-04-28T01:12:41.802Z,96345.34
2023-04-28T01:15:16.488Z,96305.25
2023-04-28T01:17:44.559Z,96299.19
2023-04-28T01:20:14.395Z,96329.13
2023-04-28T01:22:42.274Z,96336.81
2023-04-28T01:25:11.444Z,96363.84
2023-04-28T01:27:39.189Z,96369.75
2023-04-28T01:30:08.549Z,96380.88
2023-04-28T01:32:36.605Z,96410.72
2023-04-28T01:35:04.571Z,96385.44
2023-04-28T01:37:32.317Z,96368.41
2023-04-28T01:40:00.585Z,96331.91
2023-04-28T01:42:29.741Z,96340.41
2023-04-28T01:44:57.460Z,96329.13
2023-04-28T01:47:25.752Z,96347.28
2023-04-28T01:49:53.556Z,96370.88
2023-04-28T01:52:23.020Z,96354.97
2023-04-28T01:54:51.039Z,96376.13
2023-04-28T01:57:20.498Z,96392.31
2023-04-28T01:59:51.622Z,96356.47
2023-04-28T02:02:19.425Z,96340.41
2023-04-28T02:04:47.367Z,96337.94
2023-04-28T02:07:15.210Z,96313.38
2023-04-28T02:09:42.979Z,96295.38
2023-04-28T02:12:10.803Z,96268.19
2023-04-28T02:14:38.546Z,96228.41
2023-04-28T02:17:07.645Z,96168.19
2023-04-28T02:19:35.477Z,96108.97
2023-04-28T02:22:03.361Z,96059.88
2023-04-28T02:24:31.804Z,96053.69
2023-04-28T02:26:59.573Z,96043.53
2023-04-28T02:29:28.072Z,96020.81
2023-04-28T02:31:55.950Z,95986.97
2023-04-28T02:34:25.108Z,95964.91
2023-04-28T02:36:52.922Z,95953.13
2023-04-28T02:39:21.957Z,95969.97
2023-04-28T02:41:49.725Z,95961.63
2023-04-28T02:44:17.715Z,95957.22
2023-04-28T02:46:45.775Z,95955.75
2023-04-28T02:49:13.764Z,95976.97
2023-04-28T02:51:43.093Z,96013.28
2023-04-28T02:54:10.910Z,96125.16
2023-04-28T02:56:40.883Z,96217.75
2023-04-28T02:59:08.767Z,96281.25
2023-04-28T03:01:39.356Z,96303.22
2023-04-28T03:04:08.189Z,96340.72
2023-04-28T03:06:36.176Z,96382.31
2023-04-28T03:09:05.295Z,96434.28
2023-04-28T03:11:33.197Z,96467.38
2023-04-28T03:14:01.423Z,96507.34
2023-04-28T03:16:29.281Z,96544.75
2023-04-28T03:18:57.072Z,96612.00
2023-04-28T03:21:26.834Z,96632.34
2023-04-28T03:23:54.765Z,96659.59
2023-04-28T03:26:24.046Z,96685.19
2023-04-28T03:28:51.952Z,96722.91
2023-04-28T03:31:19.740Z,96757.03
2023-04-28T03:33:47.726Z,96783.06
2023-04-28T03:36:16.080Z,96807.31
2023-04-28T03:38:43.928Z,96841.97
2023-04-28T03:41:12.044Z,96853.97
2023-04-28T03:43:41.360Z,96881.28
2023-04-28T03:46:10.126Z,96927.56
2023-04-28T03:48:40.835Z,96949.59
2023-04-28T03:51:08.607Z,96982.13
2023-04-28T03:53:36.370Z,96989.56
2023-04-28T03:56:04.213Z,97017.16
2023-04-28T03:58:32.005Z,97038.38
2023-04-28T04:01:01.854Z,97089.53
2023-04-28T04:03:29.983Z,97139.09
2023-04-28T04:05:58.348Z,97172.31
2023-04-28T04:08:26.670Z,97170.81
2023-04-28T04:10:55.008Z,97140.06
2023-04-28T04:13:23.029Z,97155.38
2023-04-28T04:15:52.683Z,97202.56
2023-04-28T04:18:21.888Z,97196.34
2023-04-28T04:20:49.863Z,97194.28
2023-04-28T04:23:17.749Z,97187.25
2023-04-28T04:25:45.808Z,97217.72
2023-04-28T04:30:58.905Z,97260.56
2023-04-28T04:33:28.065Z,97268.28
2023-04-28T04:35:55.926Z,97277.97
2023-04-28T04:38:23.773Z,97338.56
2023-04-28T04:40:51.687Z,97332.50
2023-04-28T04:43:19.480Z,97326.56
2023-04-28T04:45:47.374Z,97347.84
2023-04-28T04:48:15.207Z,97359.19
2023-04-28T04:50:45.052Z,97358.06
2023-04-28T04:53:16.054Z,97387.34
2023-04-28T04:55:44.423Z,97412.91
2023-04-28T04:58:12.861Z,97419.00
2023-04-28T05:00:40.966Z,97433.50
2023-04-28T05:03:09.598Z,97442.91
2023-04-28T05:05:37.531Z,97420.66
2023-04-28T05:08:06.945Z,97428.25
2023-04-28T05:10:34.856Z,97482.47
2023-04-28T05:13:02.842Z,97531.13
2023-04-28T05:15:31.031Z,97541.47
2023-04-28T05:17:59.093Z,97549.22
2023-04-28T05:20:27.048Z,97581.72
2023-04-28T05:22:54.854Z,97593.78
2023-04-28T05:25:24.064Z,97635.69
2023-04-28T05:27:51.922Z,97645.94
2023-04-28T05:30:19.823Z,97679.41
2023-04-28T05:32:47.676Z,97733.44
2023-04-28T05:35:16.016Z,97755.56
2023-04-28T05:37:45.162Z,97824.16
2023-04-28T05:40:13.172Z,97843.13
2023-04-28T05:42:42.428Z,97849.06
2023-04-28T05:45:11.536Z,97863.75
2023-04-28T05:47:39.377Z,97855.88
2023-04-28T05:50:08.619Z,97903.25
2023-04-28T05:52:36.437Z,97954.13
2023-04-28T05:55:04.313Z,97924.03
2023-04-28T05:57:38.970Z,97935.00
2023-04-28T06:00:19.406Z,97949.56
2023-04-28T06:02:47.358Z,97934.28
2023-04-28T06:05:15.563Z,97920.44
2023-04-28T06:07:43.462Z,97905.03
2023-04-28T06:10:12.724Z,97941.94
2023-04-28T06:12:40.517Z,98008.31
2023-04-28T06:15:08.810Z,98073.53
2023-04-28T06:17:38.014Z,98108.63
2023-04-28T06:20:07.654Z,98176.38
2023-04-28T06:22:35.650Z,98170.53
2023-04-28T06:25:03.452Z,98188.44
2023-04-28T06:27:32.833Z,98257.16
2023-04-28T06:30:00.736Z,98348.44
2023-04-28T06:32:28.536Z,98393.19
2023-04-28T06:34:58.630Z,98369.00
2023-04-28T06:37:26.899Z,98379.28
2023-04-28T06:39:54.825Z,98401.81
2023-04-28T06:42:22.541Z,98416.28
2023-04-28T06:44:50.307Z,98398.34
2023-04-28T06:47:18.220Z,98373.44
2023-04-28T06:49:47.368Z,98397.50
2023-04-28T06:52:16.596Z,98348.56
2023-04-28T06:54:44.369Z,98348.44
2023-04-28T06:57:12.137Z,98352.16
2023-04-28T06:59:39.867Z,98346.19
2023-04-28T07:02:08.040Z,98420.72
2023-04-28T07:04:36.195Z,98451.88
2023-04-28T07:07:08.072Z,98442.28
2023-04-28T07:09:37.703Z,98524.19
2023-04-28T07:12:06.064Z,98589.56
2023-04-28T07:14:35.184Z,98682.81
2023-04-28T07:17:03.039Z,98806.78
2023-04-28T07:19:30.863Z,98930.25
2023-04-28T07:21:58.590Z,99127.25
2023-04-28T07:24:27.399Z,99373.63
2023-04-28T07:26:57.137Z,99438.69
2023-04-28T07:29:24.936Z,99462.03
2023-04-28T07:31:52.747Z,99322.84
2023-04-28T07:34:20.900Z,99258.88
2023-04-28T07:36:48.724Z,99212.22
2023-04-28T07:39:16.715Z,99073.91
2023-04-28T07:41:44.490Z,99100.69
2023-04-28T07:44:13.630Z,99081.69
2023-04-28T07:46:41.499Z,99076.41
2023-04-28T07:49:09.853Z,99083.38
2023-04-28T07:51:37.701Z,98953.94
2023-04-28T07:54:05.696Z,98879.66
2023-04-28T07:56:33.535Z,98924.66
2023-04-28T07:59:01.415Z,98857.19
2023-04-28T08:01:30.764Z,98813.16
2023-04-28T08:03:58.751Z,98768.31
2023-04-28T08:06:26.961Z,98752.72
2023-04-28T08:08:55.863Z,98748.53
2023-04-28T08:11:23.685Z,98726.94
2023-04-28T08:13:51.458Z,98706.34
2023-04-28T08:16:19.776Z,98653.03
2023-04-28T08:18:49.115Z,98651.22
2023-04-28T08:21:17.017Z,98697.56
2023-04-28T08:23:44.817Z,98817.50
2023-04-28T08:26:12.731Z,98903.75
2023-04-28T08:28:40.580Z,98951.16
2023-04-28T08:31:08.620Z,98929.69
2023-04-28T08:33:36.412Z,98921.03
2023-04-28T08:36:06.450Z,98876.16
2023-04-28T08:38:34.450Z,98910.72
2023-04-28T08:41:05.097Z,99017.81
2023-04-28T08:43:34.004Z,99233.75
2023-04-28T08:46:07.246Z,99278.84
2023-04-28T08:48:41.216Z,99313.47
2023-04-28T08:51:10.886Z,99277.16
2023-04-28T08:54:06.076Z,99210.53
2023-04-28T08:56:33.013Z,99256.25
2023-04-28T08:59:04.644Z,99322.03
2023-04-28T09:01:32.891Z,99419.13
2023-04-28T09:04:02.627Z,99516.22
2023-04-28T09:06:36.290Z,99516.81
2023-04-28T09:09:22.469Z,99530.78
2023-04-28T09:11:55.724Z,99496.97
2023-04-28T09:14:24.750Z,99521.28
2023-04-28T09:16:53.211Z,99491.19
2023-04-28T09:19:21.644Z,99449.50
2023-04-28T09:21:53.831Z,99360.19
2023-04-28T09:24:30.855Z,99216.78
2023-04-28T09:26:59.070Z,99179.78
2023-04-28T09:29:26.821Z,99192.50
2023-04-28T09:31:54.819Z,99232.19
2023-04-28T09:34:22.826Z,99320.47
2023-04-28T09:36:51.936Z,99412.16
2023-04-28T09:39:31.353Z,99343.19
2023-04-28T09:42:03.511Z,99306.75
2023-04-28T09:44:31.318Z,99228.22
2023-04-28T09:46:59.186Z,99209.81
2023-04-28T09:49:27.047Z,99193.47
2023-04-28T09:52:12.993Z,99196.00
2023-04-28T09:54:41.913Z,99219.44
2023-04-28T09:57:10.621Z,99209.81
2023-04-28T09:59:38.552Z,99245.44
2023-04-28T10:02:22.652Z,99249.50
2023-04-28T10:04:54.877Z,99314.44
2023-04-28T10:07:24.597Z,99367.16
2023-04-28T10:09:52.634Z,99511.75
2023-04-28T10:12:22.449Z,99647.78
2023-04-28T10:14:54.284Z,99691.19
2023-04-28T10:17:25.384Z,99792.72
2023-04-28T10:19:55.296Z,99875.13
2023-04-28T10:22:43.840Z,100092.97
2023-04-28T10:25:27.694Z,101157.47
2023-04-28T10:27:55.726Z,102047.69
2023-04-28T10:30:28.771Z,102699.56
2023-04-28T10:33:26.923Z,103424.50
2023-04-28T10:35:55.647Z,103940.19
2023-04-28T10:38:24.885Z,104264.69
2023-04-28T10:40:53.973Z,104126.97
2023-04-28T10:43:37.649Z,104102.03
2023-04-28T10:46:08.001Z,103696.94
2023-04-28T10:49:06.198Z,104335.13
2023-04-28T10:51:37.691Z,104047.06
2023-04-28T10:54:19.275Z,104153.63
2023-04-28T10:57:21.925Z,103732.66
2023-04-28T10:59:50.662Z,103600.28
2023-04-28T11:02:42.610Z,103592.69
2023-04-28T11:05:13.376Z,103377.97
2023-04-28T11:07:41.622Z,102804.91
2023-04-28T11:10:10.964Z,102514.66
2023-04-28T11:13:17.560Z,102077.16
2023-04-28T11:16:03.425Z,101440.06
2023-04-28T11:18:33.501Z,101081.94
2023-04-28T11:21:01.696Z,100834.59
2023-04-28T11:23:30.535Z,100700.22
2023-04-28T11:25:59.794Z,100551.28
2023-04-28T11:28:27.622Z,100466.63
2023-04-28T11:31:12.565Z,100940.75
2023-04-28T11:33:42.386Z,101362.50
2023-04-28T11:36:22.976Z,101407.06
2023-04-28T11:38:51.174Z,101193.66
2023-04-28T11:41:21.088Z,101149.06
2023-04-28T11:43:49.098Z,100901.75
2023-04-28T11:46:21.852Z,100833.53
2023-04-28T11:48:50.736Z,100976.66
2023-04-28T11:51:38.608Z,101401.63
2023-04-28T11:54:11.348Z,101713.09
2023-04-28T11:56:41.383Z,101885.72
2023-04-28T11:59:10.689Z,101792.84
2023-04-28T12:01:47.867Z,101573.63
2023-04-28T12:04:27.418Z,101869.97
2023-04-28T12:07:02.937Z,102904.97
2023-04-28T12:09:30.865Z,102695.75
2023-04-28T12:12:02.420Z,102276.56
2023-04-28T12:14:32.081Z,101831.41
2023-04-28T12:17:00.481Z,101438.50
2023-04-28T12:19:28.574Z,101140.84
2023-04-28T12:22:04.682Z,101811.84
2023-04-28T12:24:33.481Z,102963.00
2023-04-28T12:27:21.694Z,103899.47
2023-04-28T12:29:49.852Z,104133.31
2023-04-28T12:32:18.522Z,103857.06
2023-04-28T12:34:47.478Z,103409.03
2023-04-28T12:37:15.299Z,103234.63
2023-04-28T12:39:43.845Z,102713.19
2023-04-28T12:42:11.864Z,102364.03
2023-04-28T12:44:41.046Z,101937.44
2023-04-28T12:47:10.974Z,101775.94
2023-04-28T12:49:39.260Z,101530.34
2023-04-28T12:52:07.932Z,101315.69
2023-04-28T12:54:35.881Z,101121.53
2023-04-28T12:57:04.103Z,100875.00
2023-04-28T12:59:32.729Z,100629.97
2023-04-28T13:02:02.152Z,100335.44
2023-04-28T13:04:30.279Z,100031.88
2023-04-28T13:06:58.688Z,99821.81
2023-04-28T13:09:28.164Z,99733.84
2023-04-28T13:11:56.129Z,99704.44
2023-04-28T13:14:24.705Z,100134.09
2023-04-28T13:16:53.367Z,100817.00
2023-04-28T13:19:22.495Z,101507.13
2023-04-28T13:21:50.391Z,101578.91
2023-04-28T13:24:18.655Z,101263.56
2023-04-28T13:26:46.765Z,101146.38
2023-04-28T13:29:15.452Z,100809.13
2023-04-28T13:31:43.539Z,100726.16
2023-04-28T13:34:16.148Z,100639.94
2023-04-28T13:36:48.098Z,100465.50
2023-04-28T13:39:16.221Z,100388.13
2023-04-28T13:41:44.090Z,100337.41
2023-04-28T13:44:11.933Z,100333.03
2023-04-28T13:46:39.923Z,100211.25
2023-04-28T13:49:07.841Z,100227.06
2023-04-28T13:51:35.650Z,100172.91
2023-04-28T13:54:08.147Z,100067.84
2023-04-28T13:56:36.873Z,100011.22
2023-04-28T13:59:05.020Z,99973.03
2023-04-28T14:01:33.049Z,99879.38
2023-04-28T14:04:01.148Z,99930.41
2023-04-28T14:06:29.178Z,99765.59
2023-04-28T14:08:57.053Z,99690.22
2023-04-28T14:11:26.936Z,99606.78
2023-04-28T14:13:54.943Z,99514.97
2023-04-28T14:16:22.980Z,99471.88
2023-04-28T14:18:50.792Z,99465.88
2023-04-28T14:21:18.647Z,99584.25
2023-04-28T14:23:46.775Z,99965.78
2023-04-28T14:26:14.692Z,100852.94
2023-04-28T14:28:43.836Z,101992.59
2023-04-28T14:31:11.751Z,102764.66
2023-04-28T14:33:39.597Z,102887.16
2023-04-28T14:36:07.538Z,102637.06
2023-04-28T14:38:35.779Z,102237.19
2023-04-28T14:41:04.667Z,101969.94
2023-04-28T14:43:32.415Z,101947.09
2023-04-28T14:46:01.817Z,102561.31
2023-04-28T14:48:29.665Z,103107.84
2023-04-28T14:50:58.154Z,102819.16
2023-04-28T14:53:26.043Z,102246.88
2023-04-28T14:55:59.449Z,101795.25
2023-04-28T14:58:35.249Z,101476.88
2023-04-28T15:01:04.698Z,101153.81
2023-04-28T15:03:32.620Z,100937.97
2023-04-28T15:06:00.599Z,100762.34
2023-04-28T15:08:30.006Z,100395.53
2023-04-28T15:10:58.220Z,100254.44
2023-04-28T15:13:27.954Z,100215.38
2023-04-28T15:15:56.200Z,99928.72
2023-04-28T15:18:25.569Z,99717.69
2023-04-28T15:20:53.431Z,99651.88
2023-04-28T15:23:21.256Z,99568.47
2023-04-28T15:25:52.668Z,99544.28
2023-04-28T15:28:22.095Z,100025.72
2023-04-28T15:30:50.179Z,100729.72
2023-04-28T15:33:19.609Z,101687.97
2023-04-28T15:35:49.741Z,102442.84
2023-04-28T15:38:17.705Z,103017.41
2023-04-28T15:40:47.132Z,103303.22
2023-04-28T15:43:14.971Z,103215.66
2023-04-28T15:45:44.914Z,102971.59
2023-04-28T15:48:12.821Z,102411.34
2023-04-28T15:50:41.733Z,101920.53
2023-04-28T15:53:10.895Z,101755.31
2023-04-28T15:55:38.931Z,101654.56
2023-04-28T15:58:08.130Z,101964.25
2023-04-28T16:00:35.996Z,102342.59
2023-04-28T16:03:04.261Z,102719.94
2023-04-28T16:05:32.270Z,102859.31
2023-04-28T16:08:01.242Z,102815.31
2023-04-28T16:10:30.447Z,102658.16
2023-04-28T16:12:58.939Z,102349.59
2023-04-28T16:15:26.877Z,102449.19
2023-04-28T16:17:56.937Z,102573.38
2023-04-28T16:20:24.945Z,102456.19
2023-04-28T16:22:53.345Z,102432.41
2023-04-28T16:25:21.167Z,102404.16
2023-04-28T16:27:50.410Z,101909.94
2023-04-28T16:30:18.662Z,101563.41
2023-04-28T16:32:46.760Z,101512.41
2023-04-28T16:35:15.476Z,101629.22
2023-04-28T16:37:44.030Z,101416.81
2023-04-28T16:40:13.101Z,100858.09
2023-04-28T16:42:42.105Z,100581.69
2023-04-28T16:45:12.276Z,100367.94
2023-04-28T16:47:42.364Z,100182.84
2023-04-28T16:50:11.400Z,99958.56
2023-04-28T16:52:39.182Z,99819.03
2023-04-28T16:55:08.260Z,99679.97
2023-04-28T16:57:36.088Z,99599.44
2023-04-28T17:00:04.520Z,99456.34
2023-04-28T17:02:34.600Z,99408.78
2023-04-28T17:05:02.678Z,99366.41
2023-04-28T17:07:30.481Z,99322.34
2023-04-28T17:09:58.371Z,99280.84
2023-04-28T17:12:28.672Z,99241.75
2023-04-28T17:14:56.501Z,99177.78
2023-04-28T17:17:24.636Z,99104.34
2023-04-28T17:19:53.968Z,99022.16
2023-04-28T17:22:22.221Z,98968.88
2023-04-28T17:24:50.113Z,98893.56
2023-04-28T17:27:17.900Z,98836.72
2023-04-28T17:29:45.842Z,98763.41
2023-04-28T17:32:13.678Z,98705.75
2023-04-28T17:34:41.630Z,98632.13
2023-04-28T17:37:10.889Z,98580.63
2023-04-28T17:39:38.798Z,98543.72
2023-04-28T17:42:06.528Z,98484.09
2023-04-28T17:44:34.316Z,98432.47
2023-04-28T17:47:02.429Z,98380.19
2023-04-28T17:49:30.355Z,98309.44
2023-04-28T17:51:58.131Z,98258.75
2023-04-28T17:54:27.349Z,98217.63
2023-04-28T17:56:55.858Z,98165.16
2023-04-28T17:59:23.646Z,98100.75
2023-04-28T18:01:53.757Z,98039.72
2023-04-28T18:04:21.763Z,98026.13
2023-04-28T18:06:49.620Z,98001.97
2023-04-28T18:09:17.741Z,97948.72
2023-04-28T18:11:47.169Z,97876.66
2023-04-28T18:14:18.299Z,97842.44
2023-04-28T18:16:46.512Z,97818.75
2023-04-28T18:19:14.685Z,97782.47
2023-04-28T18:21:42.648Z,97717.09
2023-04-28T18:24:10.427Z,97693.28
2023-04-28T18:26:38.392Z,97663.22
2023-04-28T18:29:07.549Z,97620.63
2023-04-28T18:31:35.392Z,97583.00
2023-04-28T18:34:03.349Z,97569.16
2023-04-28T18:36:32.990Z,97543.69
2023-04-28T18:39:01.836Z,97505.13
2023-04-28T18:41:29.857Z,97434.88
2023-04-28T18:43:58.543Z,97380.16
2023-04-28T18:46:29.265Z,97360.56
2023-04-28T18:48:57.622Z,97338.16
2023-04-28T18:51:25.389Z,97295.34
2023-04-28T18:53:53.275Z,97258.59
2023-04-28T18:56:22.878Z,97200.63
2023-04-28T18:58:50.664Z,97163.09
2023-04-28T19:01:18.934Z,97108.44
2023-04-28T19:03:48.372Z,97065.97
2023-04-28T19:06:17.683Z,97021.59
2023-04-28T19:08:45.579Z,96995.09
2023-04-28T19:11:13.387Z,96957.38
2023-04-28T19:13:41.397Z,96952.38
2023-04-28T19:16:09.675Z,96938.88
2023-04-28T19:18:39.637Z,96914.06
2023-04-28T19:21:13.911Z,96890.22
2023-04-28T19:23:41.976Z,96857.84
2023-04-28T19:26:10.474Z,96835.53
2023-04-28T19:28:38.339Z,96808.28
2023-04-28T19:31:06.227Z,96779.34
2023-04-28T19:33:34.036Z,96748.81
2023-04-28T19:36:03.066Z,96697.59
2023-04-28T19:38:32.333Z,96637.88
2023-04-28T19:41:01.901Z,96600.47
2023-04-28T19:43:30.662Z,96592.25
2023-04-28T19:45:58.545Z,96576.84
2023-04-28T19:48:26.908Z,96564.19
2023-04-28T19:50:54.921Z,96533.38
2023-04-28T19:53:22.737Z,96524.03
2023-04-28T19:55:51.920Z,96494.50
2023-04-28T19:58:19.702Z,96447.91
2023-04-28T20:00:47.968Z,96408.63
2023-04-28T20:03:16.395Z,96368.66
2023-04-28T20:05:44.312Z,96333.75
2023-04-28T20:08:13.385Z,96306.72
2023-04-28T20:10:41.316Z,96275.31
2023-04-28T20:13:10.864Z,96265.00
2023-04-28T20:15:40.103Z,96272.69
2023-04-28T20:18:08.261Z,96275.97
2023-04-28T20:20:36.443Z,96272.38
2023-04-28T20:23:04.263Z,96277.63
2023-04-28T20:25:31.997Z,96277.63
2023-04-28T20:27:59.796Z,96266.66
2023-04-28T20:30:28.915Z,96230.81
2023-04-28T20:32:56.789Z,96193.63
2023-04-28T20:35:24.783Z,96157.16
2023-04-28T20:37:53.321Z,96121.47
2023-04-28T20:40:21.121Z,96100.53
2023-04-28T20:42:49.552Z,96093.53
2023-04-28T20:45:17.735Z,96110.53
2023-04-28T20:47:46.884Z,96109.69
2023-04-28T20:50:15.778Z,96097.63
2023-04-28T20:52:43.512Z,96078.16
2023-04-28T20:55:12.082Z,96075.69
2023-04-28T20:57:40.100Z,96057.06
2023-04-28T21:00:09.010Z,95979.97
2023-04-28T21:02:37.820Z,96002.78
2023-04-28T21:05:08.546Z,95975.97
2023-04-28T21:07:36.317Z,95937.09
2023-04-28T21:10:04.229Z,95913.22
2023-04-28T21:12:32.089Z,95874.84
2023-04-28T21:15:00.780Z,95859.81
2023-04-28T21:17:28.572Z,95829.13
2023-04-28T21:19:57.431Z,95830.28
2023-04-28T21:22:27.769Z,95813.97
2023-04-28T21:24:55.992Z,95813.28
2023-04-28T21:27:24.130Z,95788.47
2023-04-28T21:29:52.913Z,95775.91
2023-04-28T21:32:20.916Z,95755.81
2023-04-28T21:34:49.629Z,95745.56
2023-04-28T21:37:17.505Z,95750.59
2023-04-28T21:39:47.047Z,95760.72
2023-04-28T21:42:14.927Z,95799.88
2023-04-28T21:44:42.789Z,95801.22
2023-04-28T21:47:10.550Z,95791.06
2023-04-28T21:49:38.563Z,95776.06
2023-04-28T21:52:06.464Z,95754.19
2023-04-28T21:54:34.227Z,95728.59
2023-04-28T21:57:03.398Z,95693.81
2023-04-28T21:59:31.121Z,95662.50
2023-04-28T22:01:59.472Z,95647.50
2023-04-28T22:04:27.684Z,95632.19
2023-04-28T22:06:56.340Z,95612.78
2023-04-28T22:09:24.539Z,95616.84
2023-04-28T22:11:52.548Z,95624.34
2023-04-28T22:14:35.500Z,95632.69
2023-04-28T22:17:07.932Z,95643.91
2023-04-28T22:19:35.744Z,95638.72
2023-04-28T22:22:03.619Z,95636.25
2023-04-28T22:24:37.910Z,95614.25
2023-04-28T22:27:05.812Z,95586.50
2023-04-28T22:29:35.657Z,95569.56
2023-04-28T22:32:04.674Z,95552.59
2023-04-28T22:34:32.598Z,95532.41
2023-04-28T22:37:00.497Z,95513.00
2023-04-28T22:39:28.588Z,95489.06
2023-04-28T22:41:56.700Z,95481.59
2023-04-28T22:44:24.815Z,95473.09
2023-04-28T22:46:54.192Z,95461.34
2023-04-28T22:49:25.853Z,95453.69
2023-04-28T22:51:53.649Z,95446.06
2023-04-28T22:54:21.577Z,95450.44
2023-04-28T22:56:50.787Z,95444.41
2023-04-28T22:59:20.622Z,95454.84
2023-04-28T23:01:48.394Z,95436.28
2023-04-28T23:04:17.833Z,95418.53
2023-04-28T23:06:45.795Z,95384.34
2023-04-28T23:09:13.975Z,95383.84
2023-04-28T23:11:42.045Z,95368.53
2023-04-28T23:14:09.908Z,95361.69
2023-04-28T23:16:37.945Z,95362.00
2023-04-28T23:19:05.714Z,95363.47
2023-04-28T23:21:34.863Z,95368.53
2023-04-28T23:24:02.673Z,95377.13
2023-04-28T23:26:30.829Z,95383.03
2023-04-28T23:28:58.622Z,95368.53
2023-04-28T23:31:26.574Z,95371.13
2023-04-28T23:33:54.347Z,95343.94
2023-04-28T23:36:22.179Z,95335.50
2023-04-28T23:38:51.482Z,95320.34
2023-04-28T23:41:19.342Z,95306.84
2023-04-28T23:43:47.288Z,95296.75
2023-04-28T23:46:15.973Z,95287.47
2023-04-28T23:48:43.900Z,95281.78
2023-04-28T23:51:12.607Z,95264.84
2023-04-28T23:53:40.767Z,95280.97
2023-04-28T23:56:10.106Z,95271.19
2023-04-28T23:58:38.560Z,95271.38
